Aeroporto :
LOGIN :

Iscrizione | Disclaimer

   EN    FR    IT 

 










Sommario :    VFR   VFR Marginale   IFR   IFR Intensivo   IFR Molto Intensivo
Visibilità : 
Base nubi : 
>= 8 km
>= 3000ft
5 / 8 km
1000 / 3000 ft
1500m / 5 km
500 / 1000 ft
800 / 1500m
200 / 500 ft
< 800m
< 200 ft
Simboli :   Temporali  Nebbia  Neve Forte  Precipitazioni Forti  Vento > 20 kt
SIGMETs :   Varie  Temporali  Ghiacco  Turbolenza  Onda orograficha  Ceneri Vulcaniche






- Altitudine del aeroporto : 348 ft
- Codice IATA : STN


EGSS - London Stansted

ULTIMO METAR :
  • 180250Z AUTO 24011KT 9999 NCD 04/01 Q1018

METARs OBSOLETI :
  • 180220Z AUTO 23012KT 9999 NCD 03/01 Q1018
  • 180150Z AUTO 23012KT 9999 NCD 04/01 Q1017
  • 180120Z AUTO 23013KT 9999 NCD 04/01 Q1017
  • 180050Z AUTO 24011KT 9999 NCD 04/01 Q1017
  • 180020Z AUTO 24012KT 9999 NCD 04/01 Q1017

TAF TAF EGSS
Valido dal 18 a 00 ore il 19 a 06 ore UTC


172259Z 1800/1906 23012KT 9999 FEW030
PROB30
TEMPO 1800/1809 24018G28KT
BECMG 1809/1812 24018G28KT
TEMPO 1812/1819 6000 SHRA
PROB30
TEMPO 1816/1819 25022G38KT 3000 +SHRAGS BKN010 BKN020CB
BECMG 1819/1822 27012KT
PROB30
TEMPO 1819/1822 27020G30KT 4000 +SHRA
ATIS : +44 1279 669 325



MetMap, La meteo Aeronautica in un colpo d'occhio ! - Copyright ORBIFLY Dicembre 2007 - Disclaimer

ORBIFLY MET'MAP TEAM :

Programmazione e sviluppo : Alexandra Zaïnal
Concezione : Baudouin d'Aumeries
Aiuto per la programmazione : Marc-Olivier Méhu
Supporto tecnico e logistico : Manuel Goepfert
Aiuto per la traduzione : Arnaldo La Scala

Contatto : metmap@orbifly.com




FONTI E CREDITI :

   NOAA